• Join FlightAware (Why Join?)
  • Login
  • US Flag 
10:50AM EDT


 

Airport Tracker/Info


-or-


 

Live Flight TrackerFlight Track Log ✈ SKW6436 ✈ 30-Jan-2014 ✈ KSAN - KLAX

Flight Track Log - Related Links

Times and Time Zones

All times are in EST time to prevent confusion due to time zone crossing. See the SKW6436 flight status page for this flight to view local times or setup timezone preferences in your user account.

Time Position Orientation Groundspeed Altitude Reporting Facility
EST Latitude Longitude Course Direction KTS MPH feet Rate Location/Type
10:15PM 32.7667 -117.2500 320° Northwest 182 209 2,500  Level Southern California TRACON
10:16PM 32.8000 -117.3000 308° West 185 213 4,400 1,680 Climbing Southern California TRACON
10:17PM 32.8167 -117.3500 292° West 183 211 5,900 1,620 Climbing Southern California TRACON
10:18PM 32.9272 -117.3772 320° Northwest  Level FlightAware Approximate
10:18PM 32.8500 -117.4000 308° West 183 211 7,700  Level Southern California TRACON
10:19PM 32.9760 -117.4258 320° Northwest  Level FlightAware Approximate
10:19PM 32.9000 -117.4500 320° Northwest 210 242 8,000  Level Southern California TRACON
10:20PM 33.0248 -117.4745 320° Northwest  Level FlightAware Approximate
10:20PM 32.9333 -117.5000 308° West 223 257 8,000  Level Southern California TRACON
10:21PM 33.0690 -117.5188 320° Northwest  Level FlightAware Approximate
10:21PM 32.9833 -117.5500 320° Northwest 221 254 8,000  Level Southern California TRACON
10:22PM 32.9886 -117.5744 284° West 222 255 8,000  Level Los Angeles Center
10:23PM 33.0278 -117.6292 310° West 221 254 8,000  Level Los Angeles Center
10:24PM 33.0758 -117.6936 312° West 217 250 8,000  Level Los Angeles Center
10:25PM 33.1158 -117.7478 311° West 218 251 8,000  Level Los Angeles Center
10:26PM 33.1561 -117.8031 311° West 221 254 8,000  Level Los Angeles Center
10:27PM 33.2069 -117.8456 325° Northwest 227 261 8,000  Level Los Angeles Center
10:28PM 33.2697 -117.8672 344° North 235 270 8,000  Level Los Angeles Center
10:29PM 33.3183 -117.9072 325° Northwest 222 255 8,000  Level Los Angeles Center
10:30PM 33.3564 -117.9531 315° West 212 244 8,000  Level Los Angeles Center
10:31PM 33.4269 -117.9708 348° North 217 250 8,000  Level Los Angeles Center
10:32PM 33.4878 -117.9875 347° North 221 254 8,000  Level Los Angeles Center
10:33PM 33.5511 -118.0008 350° North 228 262 8,000 -240 Level Los Angeles Center
10:34PM 33.6150 -118.0147 350° North 233 268 7,600 -480 Descending Los Angeles Center
10:35PM 33.6683 -118.0275 349° North 207 238 7,100 -300 Descending Los Angeles Center
10:36PM 33.7183 -118.0397 349° North 189 217 7,000 -60 Descending Los Angeles Center
10:37PM 33.7789 -118.0542 349° North 186 214 7,000 -660 Level Los Angeles Center
10:38PM 33.8333 -118.0500 North 219 252 5,700 -1,140 Descending Southern California TRACON
10:39PM 33.9000 -118.0333 12° North 187 215 4,500 -1,200 Descending Southern California TRACON
10:40PM 33.9500 -118.0500 345° North 187 215 3,200 -1,020 Descending Southern California TRACON
10:41PM 33.9667 -118.1000 292° West 185 213 2,600 -360 Descending Southern California TRACON
10:42PM 33.9667 -118.1667 270° West 168 193 2,600  Level Southern California TRACON
10:43PM 33.9500 -118.2167 248° West 162 186 2,600 -300 Level Southern California TRACON
10:44PM 33.9500 -118.2667 270° West 155 178 2,100 -600 Descending Southern California TRACON
10:45PM 33.9500 -118.3167 270° West 137 158 1,400 -720 Descending Southern California TRACON
10:46PM 33.9333 -118.3667 248° West 119 137 600 -540 Descending Southern California TRACON
10:48PM 33.9367 -118.4017 277° West 128 147 200 -360 Descending Los Angeles Center